Carnival Splendor — 3EUS — position and weather

sailwx.info

Track history (hours):
 
Tides and Currents Weather Stations Pressure Air Temp Water Temp Dewpoint Dewpoint Depression Visibility Wind Speed Wind Dir Waves Ship Positions

Carnival Splendor

Last reported at 2018-Jul-22 06:00 UTC. Time now 2018-Jul-22 06:18 UTC.
Position N 31°54' W 117°28'.

Length 289 m; draft 8.4 m.

Type: Passenger vessel. MMSI: 372808000.

Date/timePositionNaut miles runAvg speedWind from/ knotsBaromVisibWave heightAir tempDewpointWater temp
2018-Jul-22 06:00N 31°54' W 117°28'1020.4
2018-Jul-22 05:30N 32°04' W 117°32'1020.3
2018-Jul-22 05:00N 32°13' W 117°36'5333.4
2018-Jul-22 05:00N 32°18' W 117°36'612.6 280 / 151016.010.8 22.018.922.0
2018-Jul-22 04:30N 32°23' W 117°40'1020.2
2018-Jul-22 04:00N 32°32' W 117°44'1020.3
2018-Jul-22 03:30N 32°42' W 117°48'1020.5
2018-Jul-22 03:01N 32°52' W 117°51'1020.3
2018-Jul-22 02:30N 33°01' W 117°55'1020.6
2018-Jul-22 02:01N 33°11' W 118°01'12724.5
2018-Jul-22 02:00N 33°00' W 117°54'2246.0 290 / 24 10.8 20.016.723.0
2018-Jul-22 01:30N 33°20' W 118°07'1020.5
2018-Jul-22 01:00N 33°29' W 118°11'815.6
2018-Jul-22 00:30N 33°37' W 118°13'611.7
2018-Jul-22 00:00N 33°43' W 118°11'2 4.4
2018-Jul-21 23:30N 33°45' W 118°11'0 0.0
2018-Jul-21 23:00N 33°45' W 118°11'0 0.0
2018-Jul-21 22:30N 33°45' W 118°11'0 0.0
2018-Jul-21 22:00N 33°45' W 118°11'0 0.0
2018-Jul-21 21:30N 33°45' W 118°11'0 0.0
2018-Jul-21 20:59N 33°45' W 118°11'0 0.0
2018-Jul-21 20:29N 33°45' W 118°11'0 0.0
2018-Jul-21 19:59N 33°45' W 118°11'0 0.0
2018-Jul-21 19:29N 33°45' W 118°11'510.9
2018-Jul-21 19:00N 33°42' W 118°06'5306.8 1014.010.8 22.017.216.0
2018-Jul-21 18:58N 33°45' W 118°11'0 0.0
2018-Jul-21 18:28N 33°45' W 118°11'0 0.0
2018-Jul-21 17:58N 33°45' W 118°11'0 0.0
2018-Jul-21 17:28N 33°45' W 118°11'0 0.0
2018-Jul-21 17:00N 33°45' W 118°11'0 0.0
2018-Jul-21 16:30N 33°45' W 118°11'0 0.0
2018-Jul-21 16:00N 33°45' W 118°11'0 0.0
2018-Jul-21 15:30N 33°45' W 118°11'0 0.0
2018-Jul-21 15:00N 33°45' W 118°11'0 0.0
2018-Jul-21 14:30N 33°45' W 118°11'0 0.0
2018-Jul-21 14:01N 33°45' W 118°11'0 0.5
2018-Jul-21 13:30N 33°45' W 118°11'4 7.6
2018-Jul-21 13:00N 33°41' W 118°11'5 9.7
2018-Jul-21 12:30N 33°36' W 118°10'612.8
2018-Jul-21 12:00N 33°30' W 118°07'816.9
2018-Jul-21 11:31N 33°22' W 118°04'815.3
2018-Jul-21 11:00N 33°15' W 117°60'11693.9
2018-Jul-21 11:00N 33°06' W 117°54'2 3.2 290 / 91014.010.8 18.014.619.0
2018-Jul-21 10:31N 33°07' W 117°55'917.8
2018-Jul-21 10:01N 32°59' W 117°51'918.9
2018-Jul-21 09:31N 32°50' W 117°48'1020.4
2018-Jul-21 09:01N 32°40' W 117°45'1019.9
2018-Jul-21 08:30N 32°30' W 117°44'1020.4
2018-Jul-21 08:00N 32°21' W 117°40'1020.3
2018-Jul-21 07:31N 32°11' W 117°35'1020.0
2018-Jul-21 07:01N 32°02' W 117°31'1019.9
2018-Jul-21 06:31N 31°52' W 117°27'1019.7
2018-Jul-21 06:01N 31°43' W 117°23'4240.0
2018-Jul-21 06:00N 31°42' W 117°18'714.7 290 / 201014.010.8 19.017.416.0
2018-Jul-21 05:30N 31°35' W 117°17'1019.4
2018-Jul-21 05:00N 31°26' W 117°14'1019.3
2018-Jul-21 04:30N 31°16' W 117°11'1019.3
2018-Jul-21 04:01N 31°07' W 117°08'1020.2
2018-Jul-21 03:31N 30°58' W 117°04'1019.8
2018-Jul-21 03:00N 30°48' W 116°60'1118.8
2018-Jul-21 02:24N 30°38' W 116°55'717.8
2018-Jul-21 02:01N 30°31' W 116°52'918.0
2018-Jul-21 01:30N 30°23' W 116°47'3417.7
2018-Jul-20 23:34N 29°50' W 116°35'117.7
2018-Jul-20 23:31N 29°49' W 116°35'1427.1
2018-Jul-20 23:00N 29°36' W 116°30'214.9 290 / 191013.010.8 18.014.620.0
2018-Jul-20 22:50N 29°38' W 116°30'917.6
2018-Jul-20 22:21N 29°30' W 116°26'718.5
2018-Jul-20 22:00N 29°24' W 116°24'1918.7 300 / 181013.010.8 19.013.820.0
2018-Jul-20 21:00N 29°06' W 116°18'6020.0 300 / 181011.010.8 19.013.820.0
2018-Jul-20 18:00N 28°12' W 115°48'2120.9 310 / 151014.010.8 20.016.718.0
2018-Jul-20 17:00N 27°54' W 115°36'1616.0 300 / 151014.010.8 20.018.418.0
2018-Jul-20 16:00N 27°42' W 115°24'1616.0 300 / 151014.010.8 20.018.418.0
2018-Jul-20 15:00N 27°30' W 115°12'3524.1 310 / 151012.010.8 20.018.418.0
2018-Jul-20 13:32N 27°02' W 114°49'020.3
2018-Jul-20 13:30N 27°01' W 114°48'3321.9
2018-Jul-20 12:00N 26°36' W 114°24'3718.5 320 / 151012.0 20.016.718.0
2018-Jul-20 10:00N 26°06' W 114°00'8120.2 300 / 181013.010.8 20.016.720.0
2018-Jul-20 06:00N 25°06' W 113°00'2121.0 300 / 201012.010.8 21.019.418.0
2018-Jul-20 05:00N 24°48' W 112°48'2020.3 300 / 201012.010.8 21.019.418.0
2018-Jul-20 04:00N 24°36' W 112°30'1616.2 300 / 201012.010.8 21.019.418.0
2018-Jul-20 03:00N 24°24' W 112°18'8621.5 310 / 211012.010.8 22.020.518.0
2018-Jul-19 23:00N 23°36' W 111°00'2020.4 280 / 231011.010.8 25.018.824.0
2018-Jul-19 22:00N 23°24' W 110°42'319 9.1 270 / 241011.010.8 24.017.725.0
2018-Jul-18 11:00N 20°30' W 105°54'   110 / 101013.0 29.024.826.0
2018-Jul-16 06:00N 24°48' W 112°42'17921.4 300 / 101014.010.8 21.019.418.0
2018-Jul-15 21:40N 27°04' W 114°51'420.1
2018-Jul-15 21:29N 27°07' W 114°53'1120.0
2018-Jul-15 20:56N 27°15' W 115°01'919.9
2018-Jul-15 20:29N 27°22' W 115°08'919.9
2018-Jul-15 20:01N 27°29' W 115°15'1119.8
2018-Jul-15 19:28N 27°37' W 115°22'2819.3
2018-Jul-15 18:00N 28°00' W 115°42'16120.6 310 / 101015.010.8 20.018.418.0
2018-Jul-15 10:10N 30°30' W 116°52'2320.1
2018-Jul-15 09:02N 30°51' W 117°01'120.2
2018-Jul-15 09:00N 30°51' W 117°01'1020.1
2018-Jul-15 08:29N 31°01' W 117°05'1020.8
2018-Jul-15 08:00N 31°11' W 117°09'1020.8
2018-Jul-15 07:30N 31°20' W 117°14'1020.7
2018-Jul-15 07:00N 31°30' W 117°18'1220.6
2018-Jul-15 06:24N 31°42' W 117°23'820.4
2018-Jul-15 06:01N 31°49' W 117°26'1020.4
2018-Jul-15 05:30N 31°59' W 117°30'1020.2
2018-Jul-15 05:00N 32°08' W 117°34'1020.0
2018-Jul-15 04:31N 32°18' W 117°39'1020.3
2018-Jul-15 04:00N 32°27' W 117°43'1020.6
2018-Jul-15 03:30N 32°37' W 117°47'1020.5
2018-Jul-15 03:01N 32°47' W 117°50'1020.6
2018-Jul-15 02:30N 32°57' W 117°53'1020.8
2018-Jul-15 02:00N 33°07' W 117°57'1020.5
2018-Jul-15 01:31N 33°15' W 118°04'1020.2
2018-Jul-15 01:01N 33°25' W 118°08'1019.3
2018-Jul-15 00:31N 33°34' W 118°12'612.5
2018-Jul-15 00:01N 33°40' W 118°12'5 9.2
2018-Jul-14 23:30N 33°44' W 118°11'1 1.3
2018-Jul-14 22:58N 33°45' W 118°11'0 0.0
2018-Jul-14 22:28N 33°45' W 118°11'0 0.0
2018-Jul-14 21:58N 33°45' W 118°11'0 0.0
2018-Jul-14 21:28N 33°45' W 118°11'0 0.0
2018-Jul-14 20:58N 33°45' W 118°11'0 0.0
2018-Jul-14 20:30N 33°45' W 118°11'0 0.0
2018-Jul-14 20:00N 33°45' W 118°11'0 0.0
2018-Jul-14 19:30N 33°45' W 118°11'0 0.0
2018-Jul-14 19:00N 33°45' W 118°11'0 0.0
2018-Jul-14 18:30N 33°45' W 118°11'0 0.0
2018-Jul-14 17:59N 33°45' W 118°11'0 0.0
2018-Jul-14 17:29N 33°45' W 118°11'0 0.0
2018-Jul-14 16:59N 33°45' W 118°11'0 0.0
2018-Jul-14 16:31N 33°45' W 118°11'0 0.0
2018-Jul-14 16:01N 33°45' W 118°11'0 0.0
2018-Jul-14 15:31N 33°45' W 118°11'0 0.0
2018-Jul-14 15:00N 33°45' W 118°11'0 0.0
2018-Jul-14 14:30N 33°45' W 118°11'0 0.3
2018-Jul-14 13:30N 33°45' W 118°11'3 6.8
2018-Jul-14 13:01N 33°42' W 118°11'510.8
2018-Jul-14 12:30N 33°36' W 118°10'713.1
2018-Jul-14 12:00N 33°30' W 118°07'713.4
2018-Jul-14 11:30N 33°24' W 118°04'612.5
2018-Jul-14 11:01N 33°18' W 118°01'714.6
2018-Jul-14 10:31N 33°11' W 117°57'714.5
2018-Jul-14 10:01N 33°05' W 117°54'714.8
2018-Jul-14 09:30N 32°58' W 117°51'714.9
2018-Jul-14 09:00N 32°51' W 117°48'714.8
2018-Jul-14 08:30N 32°43' W 117°48'815.6
2018-Jul-14 08:00N 32°36' W 117°46'816.9
2018-Jul-14 07:31N 32°28' W 117°43'816.7
2018-Jul-14 07:00N 32°20' W 117°40'916.8
2018-Jul-14 06:29N 32°12' W 117°36'816.8
2018-Jul-14 05:59N 32°04' W 117°32'816.7
2018-Jul-14 05:30N 31°56' W 117°29'816.7
2018-Jul-14 05:00N 31°48' W 117°26'916.7
2018-Jul-14 04:28N 31°40' W 117°22'1216.5
2018-Jul-14 03:46N 31°29' W 117°17'416.6
2018-Jul-14 03:30N 31°25' W 117°15'917.0
2018-Jul-14 03:00N 31°17' W 117°12'1216.6
2018-Jul-14 02:18N 31°06' W 117°07'516.0
2018-Jul-14 02:00N 31°02' W 117°05'815.9
2018-Jul-14 01:30N 30°54' W 117°02'816.8
2018-Jul-14 01:00N 30°46' W 116°59'816.9
2018-Jul-14 00:30N 30°38' W 116°55'10016.3
2018-Jul-13 18:23N 29°05' W 116°16'616.6
2018-Jul-13 18:00N 28°59' W 116°13'3517.0
2018-Jul-13 15:57N 28°26' W 115°59'7117.4
2018-Jul-13 11:53N 27°28' W 115°14'2918.3
2018-Jul-13 10:18N 27°06' W 114°53'517.4
2018-Jul-13 10:00N 27°02' W 114°49'917.2
2018-Jul-13 09:28N 26°55' W 114°42'817.1
2018-Jul-13 09:00N 26°49' W 114°37'  
Track history (hours):
 
Tides and Currents Weather Stations Pressure Air Temp Water Temp Dewpoint Dewpoint Depression Visibility Wind Speed Wind Dir Waves Ship Positions

Carnival Splendor

Last reported at 2018-Jul-22 06:00 UTC. Time now 2018-Jul-22 06:18 UTC.
Position N 31°54' W 117°28'.

Length 289 m; draft 8.4 m.

Type: Passenger vessel. MMSI: 372808000.

Date/timePositionNaut miles runAvg speedWind from/ knotsBaromVisibWave heightAir tempDewpointWater temp
2018-Jul-22 06:00N 31°54' W 117°28'1020.4
2018-Jul-22 05:30N 32°04' W 117°32'1020.3
2018-Jul-22 05:00N 32°13' W 117°36'5333.4
2018-Jul-22 05:00N 32°18' W 117°36'612.6 280 / 151016.010.8 22.018.922.0
2018-Jul-22 04:30N 32°23' W 117°40'1020.2
2018-Jul-22 04:00N 32°32' W 117°44'1020.3
2018-Jul-22 03:30N 32°42' W 117°48'1020.5
2018-Jul-22 03:01N 32°52' W 117°51'1020.3
2018-Jul-22 02:30N 33°01' W 117°55'1020.6
2018-Jul-22 02:01N 33°11' W 118°01'12724.5
2018-Jul-22 02:00N 33°00' W 117°54'2246.0 290 / 24 10.8 20.016.723.0
2018-Jul-22 01:30N 33°20' W 118°07'1020.5
2018-Jul-22 01:00N 33°29' W 118°11'815.6
2018-Jul-22 00:30N 33°37' W 118°13'611.7
2018-Jul-22 00:00N 33°43' W 118°11'2 4.4
2018-Jul-21 23:30N 33°45' W 118°11'0 0.0
2018-Jul-21 23:00N 33°45' W 118°11'0 0.0
2018-Jul-21 22:30N 33°45' W 118°11'0 0.0
2018-Jul-21 22:00N 33°45' W 118°11'0 0.0
2018-Jul-21 21:30N 33°45' W 118°11'0 0.0
2018-Jul-21 20:59N 33°45' W 118°11'0 0.0
2018-Jul-21 20:29N 33°45' W 118°11'0 0.0
2018-Jul-21 19:59N 33°45' W 118°11'0 0.0
2018-Jul-21 19:29N 33°45' W 118°11'510.9
2018-Jul-21 19:00N 33°42' W 118°06'5306.8 1014.010.8 22.017.216.0
2018-Jul-21 18:58N 33°45' W 118°11'0 0.0
2018-Jul-21 18:28N 33°45' W 118°11'0 0.0
2018-Jul-21 17:58N 33°45' W 118°11'0 0.0
2018-Jul-21 17:28N 33°45' W 118°11'0 0.0
2018-Jul-21 17:00N 33°45' W 118°11'0 0.0
2018-Jul-21 16:30N 33°45' W 118°11'0 0.0
2018-Jul-21 16:00N 33°45' W 118°11'0 0.0
2018-Jul-21 15:30N 33°45' W 118°11'0 0.0
2018-Jul-21 15:00N 33°45' W 118°11'0 0.0
2018-Jul-21 14:30N 33°45' W 118°11'0 0.0
2018-Jul-21 14:01N 33°45' W 118°11'0 0.5
2018-Jul-21 13:30N 33°45' W 118°11'4 7.6
2018-Jul-21 13:00N 33°41' W 118°11'5 9.7
2018-Jul-21 12:30N 33°36' W 118°10'612.8
2018-Jul-21 12:00N 33°30' W 118°07'816.9
2018-Jul-21 11:31N 33°22' W 118°04'815.3
2018-Jul-21 11:00N 33°15' W 117°60'11693.9
2018-Jul-21 11:00N 33°06' W 117°54'2 3.2 290 / 91014.010.8 18.014.619.0
2018-Jul-21 10:31N 33°07' W 117°55'917.8
2018-Jul-21 10:01N 32°59' W 117°51'918.9
2018-Jul-21 09:31N 32°50' W 117°48'1020.4
2018-Jul-21 09:01N 32°40' W 117°45'1019.9
2018-Jul-21 08:30N 32°30' W 117°44'1020.4
2018-Jul-21 08:00N 32°21' W 117°40'1020.3
2018-Jul-21 07:31N 32°11' W 117°35'1020.0
2018-Jul-21 07:01N 32°02' W 117°31'1019.9
2018-Jul-21 06:31N 31°52' W 117°27'1019.7
2018-Jul-21 06:01N 31°43' W 117°23'4240.0
2018-Jul-21 06:00N 31°42' W 117°18'714.7 290 / 201014.010.8 19.017.416.0
2018-Jul-21 05:30N 31°35' W 117°17'1019.4
2018-Jul-21 05:00N 31°26' W 117°14'1019.3
2018-Jul-21 04:30N 31°16' W 117°11'1019.3
2018-Jul-21 04:01N 31°07' W 117°08'1020.2
2018-Jul-21 03:31N 30°58' W 117°04'1019.8
2018-Jul-21 03:00N 30°48' W 116°60'1118.8
2018-Jul-21 02:24N 30°38' W 116°55'717.8
2018-Jul-21 02:01N 30°31' W 116°52'918.0
2018-Jul-21 01:30N 30°23' W 116°47'3417.7
2018-Jul-20 23:34N 29°50' W 116°35'117.7
2018-Jul-20 23:31N 29°49' W 116°35'1427.1
2018-Jul-20 23:00N 29°36' W 116°30'214.9 290 / 191013.010.8 18.014.620.0
2018-Jul-20 22:50N 29°38' W 116°30'917.6
2018-Jul-20 22:21N 29°30' W 116°26'718.5
2018-Jul-20 22:00N 29°24' W 116°24'1918.7 300 / 181013.010.8 19.013.820.0
2018-Jul-20 21:00N 29°06' W 116°18'6020.0 300 / 181011.010.8 19.013.820.0
2018-Jul-20 18:00N 28°12' W 115°48'2120.9 310 / 151014.010.8 20.016.718.0
2018-Jul-20 17:00N 27°54' W 115°36'1616.0 300 / 151014.010.8 20.018.418.0
2018-Jul-20 16:00N 27°42' W 115°24'1616.0 300 / 151014.010.8 20.018.418.0
2018-Jul-20 15:00N 27°30' W 115°12'3524.1 310 / 151012.010.8 20.018.418.0
2018-Jul-20 13:32N 27°02' W 114°49'020.3
2018-Jul-20 13:30N 27°01' W 114°48'3321.9
2018-Jul-20 12:00N 26°36' W 114°24'3718.5 320 / 151012.0 20.016.718.0
2018-Jul-20 10:00N 26°06' W 114°00'8120.2 300 / 181013.010.8 20.016.720.0
2018-Jul-20 06:00N 25°06' W 113°00'2121.0 300 / 201012.010.8 21.019.418.0
2018-Jul-20 05:00N 24°48' W 112°48'2020.3 300 / 201012.010.8 21.019.418.0
2018-Jul-20 04:00N 24°36' W 112°30'1616.2 300 / 201012.010.8 21.019.418.0
2018-Jul-20 03:00N 24°24' W 112°18'8621.5 310 / 211012.010.8 22.020.518.0
2018-Jul-19 23:00N 23°36' W 111°00'2020.4 280 / 231011.010.8 25.018.824.0
2018-Jul-19 22:00N 23°24' W 110°42'319 9.1 270 / 241011.010.8 24.017.725.0
2018-Jul-18 11:00N 20°30' W 105°54'   110 / 101013.0 29.024.826.0
2018-Jul-16 06:00N 24°48' W 112°42'17921.4 300 / 101014.010.8 21.019.418.0
2018-Jul-15 21:40N 27°04' W 114°51'420.1
2018-Jul-15 21:29N 27°07' W 114°53'1120.0
2018-Jul-15 20:56N 27°15' W 115°01'919.9
2018-Jul-15 20:29N 27°22' W 115°08'919.9
2018-Jul-15 20:01N 27°29' W 115°15'1119.8
2018-Jul-15 19:28N 27°37' W 115°22'2819.3
2018-Jul-15 18:00N 28°00' W 115°42'16120.6 310 / 101015.010.8 20.018.418.0
2018-Jul-15 10:10N 30°30' W 116°52'2320.1
2018-Jul-15 09:02N 30°51' W 117°01'120.2
2018-Jul-15 09:00N 30°51' W 117°01'1020.1
2018-Jul-15 08:29N 31°01' W 117°05'1020.8
2018-Jul-15 08:00N 31°11' W 117°09'1020.8
2018-Jul-15 07:30N 31°20' W 117°14'1020.7
2018-Jul-15 07:00N 31°30' W 117°18'1220.6
2018-Jul-15 06:24N 31°42' W 117°23'820.4
2018-Jul-15 06:01N 31°49' W 117°26'1020.4
2018-Jul-15 05:30N 31°59' W 117°30'1020.2
2018-Jul-15 05:00N 32°08' W 117°34'1020.0
2018-Jul-15 04:31N 32°18' W 117°39'1020.3
2018-Jul-15 04:00N 32°27' W 117°43'1020.6
2018-Jul-15 03:30N 32°37' W 117°47'1020.5
2018-Jul-15 03:01N 32°47' W 117°50'1020.6
2018-Jul-15 02:30N 32°57' W 117°53'1020.8
2018-Jul-15 02:00N 33°07' W 117°57'1020.5
2018-Jul-15 01:31N 33°15' W 118°04'1020.2
2018-Jul-15 01:01N 33°25' W 118°08'1019.3
2018-Jul-15 00:31N 33°34' W 118°12'612.5
2018-Jul-15 00:01N 33°40' W 118°12'5 9.2
2018-Jul-14 23:30N 33°44' W 118°11'1 1.3
2018-Jul-14 22:58N 33°45' W 118°11'0 0.0
2018-Jul-14 22:28N 33°45' W 118°11'0 0.0
2018-Jul-14 21:58N 33°45' W 118°11'0 0.0
2018-Jul-14 21:28N 33°45' W 118°11'0 0.0
2018-Jul-14 20:58N 33°45' W 118°11'0 0.0
2018-Jul-14 20:30N 33°45' W 118°11'0 0.0
2018-Jul-14 20:00N 33°45' W 118°11'0 0.0
2018-Jul-14 19:30N 33°45' W 118°11'0 0.0
2018-Jul-14 19:00N 33°45' W 118°11'0 0.0
2018-Jul-14 18:30N 33°45' W 118°11'0 0.0
2018-Jul-14 17:59N 33°45' W 118°11'0 0.0
2018-Jul-14 17:29N 33°45' W 118°11'0 0.0
2018-Jul-14 16:59N 33°45' W 118°11'0 0.0
2018-Jul-14 16:31N 33°45' W 118°11'0 0.0
2018-Jul-14 16:01N 33°45' W 118°11'0 0.0
2018-Jul-14 15:31N 33°45' W 118°11'0 0.0
2018-Jul-14 15:00N 33°45' W 118°11'0 0.0
2018-Jul-14 14:30N 33°45' W 118°11'0 0.3
2018-Jul-14 13:30N 33°45' W 118°11'3 6.8
2018-Jul-14 13:01N 33°42' W 118°11'510.8
2018-Jul-14 12:30N 33°36' W 118°10'713.1
2018-Jul-14 12:00N 33°30' W 118°07'713.4
2018-Jul-14 11:30N 33°24' W 118°04'612.5
2018-Jul-14 11:01N 33°18' W 118°01'714.6
2018-Jul-14 10:31N 33°11' W 117°57'714.5
2018-Jul-14 10:01N 33°05' W 117°54'714.8
2018-Jul-14 09:30N 32°58' W 117°51'714.9
2018-Jul-14 09:00N 32°51' W 117°48'714.8
2018-Jul-14 08:30N 32°43' W 117°48'815.6
2018-Jul-14 08:00N 32°36' W 117°46'816.9
2018-Jul-14 07:31N 32°28' W 117°43'816.7
2018-Jul-14 07:00N 32°20' W 117°40'916.8
2018-Jul-14 06:29N 32°12' W 117°36'816.8
2018-Jul-14 05:59N 32°04' W 117°32'816.7
2018-Jul-14 05:30N 31°56' W 117°29'816.7
2018-Jul-14 05:00N 31°48' W 117°26'916.7
2018-Jul-14 04:28N 31°40' W 117°22'1216.5
2018-Jul-14 03:46N 31°29' W 117°17'416.6
2018-Jul-14 03:30N 31°25' W 117°15'917.0
2018-Jul-14 03:00N 31°17' W 117°12'1216.6
2018-Jul-14 02:18N 31°06' W 117°07'516.0
2018-Jul-14 02:00N 31°02' W 117°05'815.9
2018-Jul-14 01:30N 30°54' W 117°02'816.8
2018-Jul-14 01:00N 30°46' W 116°59'816.9
2018-Jul-14 00:30N 30°38' W 116°55'10016.3
2018-Jul-13 18:23N 29°05' W 116°16'616.6
2018-Jul-13 18:00N 28°59' W 116°13'3517.0
2018-Jul-13 15:57N 28°26' W 115°59'7117.4
2018-Jul-13 11:53N 27°28' W 115°14'2918.3
2018-Jul-13 10:18N 27°06' W 114°53'517.4
2018-Jul-13 10:00N 27°02' W 114°49'917.2
2018-Jul-13 09:28N 26°55' W 114°42'817.1
2018-Jul-13 09:00N 26°49' W 114°37'  

Dump ship's entire track history